Time;durP1;ratioP1;P1;durP2;ratioP2;P2;SDS_P1;SDS_P2;PMS_P1;PMS_P2;Temp;Humidity;BMP_temperature;BMP_pressure;BME280_temperature;BME280_humidity;BME280_pressure;Samples;Min_cycle;Max_cycle;Signal;HPM_P1;HPM_P2
2023/12/28 00:01:42;;;;;;;8.10;3.17;;;8.80;99.90;;;;;;5068977;28;20042;-65
2023/12/28 00:04:08;;;;;;;6.30;2.90;;;8.80;99.90;;;;;;5062553;28;20132;-66
2023/12/28 00:06:34;;;;;;;9.45;3.45;;;8.80;99.90;;;;;;5069252;28;20059;-66
2023/12/28 00:09:01;;;;;;;7.75;2.85;;;8.80;99.90;;;;;;5070917;28;20082;-66
2023/12/28 00:11:28;;;;;;;5.05;2.65;;;8.80;99.90;;;;;;5112532;27;20228;-66
2023/12/28 00:13:54;;;;;;;7.32;2.92;;;8.80;99.90;;;;;;5091079;28;20050;-65
2023/12/28 00:16:23;;;;;;;7.82;3.00;;;8.80;99.90;;;;;;5082822;28;20139;-65
2023/12/28 00:18:49;;;;;;;7.47;2.80;;;8.90;99.90;;;;;;5093913;28;20521;-65
2023/12/28 00:21:16;;;;;;;7.55;2.80;;;8.80;99.90;;;;;;5089297;27;20108;-66
2023/12/28 00:23:46;;;;;;;8.75;3.17;;;8.90;99.90;;;;;;5116659;27;20043;-65
2023/12/28 00:26:12;;;;;;;10.02;3.53;;;8.90;99.90;;;;;;5083628;28;20074;-65
2023/12/28 00:28:38;;;;;;;7.03;3.13;;;8.90;99.90;;;;;;5089060;28;20630;-66
2023/12/28 00:31:04;;;;;;;7.22;2.67;;;9.10;99.90;;;;;;5090775;28;20047;-65
2023/12/28 00:33:30;;;;;;;7.50;2.90;;;8.90;99.90;;;;;;5081161;28;20066;-65
2023/12/28 00:35:57;;;;;;;8.93;2.53;;;8.90;99.90;;;;;;5080793;28;20035;-65
2023/12/28 00:38:23;;;;;;;8.07;3.05;;;8.90;99.90;;;;;;5091121;28;20047;-65
2023/12/28 00:40:49;;;;;;;9.20;2.70;;;9.00;99.90;;;;;;5094370;28;20124;-67
2023/12/28 00:43:16;;;;;;;7.45;3.25;;;8.90;99.90;;;;;;5068267;28;20039;-66
2023/12/28 00:45:43;;;;;;;10.88;2.83;;;9.00;99.90;;;;;;5100196;27;20039;-66
2023/12/28 00:48:09;;;;;;;10.45;2.72;;;9.00;99.90;;;;;;5115853;27;20072;-66
2023/12/28 00:50:35;;;;;;;12.75;3.05;;;9.00;99.90;;;;;;5115767;27;20126;-65
2023/12/28 00:53:03;;;;;;;8.13;2.63;;;9.00;99.90;;;;;;5087293;28;20079;-65
2023/12/28 00:55:30;;;;;;;8.50;2.65;;;9.10;99.90;;;;;;5083817;28;20276;-66
2023/12/28 00:57:56;;;;;;;11.13;2.72;;;9.00;99.90;;;;;;5088631;28;20048;-65
2023/12/28 01:00:23;;;;;;;11.98;3.58;;;9.00;99.90;;;;;;5084406;28;20048;-65
2023/12/28 01:02:49;;;;;;;16.33;2.80;;;9.10;99.90;;;;;;5080525;28;20657;-65
2023/12/28 01:05:16;;;;;;;15.45;2.80;;;9.10;99.90;;;;;;5099519;27;20100;-65
2023/12/28 01:07:43;;;;;;;17.13;2.88;;;9.10;99.90;;;;;;5083473;28;20082;-65
2023/12/28 01:10:10;;;;;;;12.50;3.10;;;9.10;99.90;;;;;;5083356;28;20046;-64
2023/12/28 01:12:37;;;;;;;14.60;2.67;;;9.20;99.90;;;;;;5098039;28;20039;-65
2023/12/28 01:15:04;;;;;;;13.77;3.10;;;9.10;99.90;;;;;;5082959;28;20039;-65
2023/12/28 01:17:31;;;;;;;15.95;3.15;;;9.20;99.90;;;;;;5083079;28;20050;-65
2023/12/28 01:19:59;;;;;;;14.50;2.90;;;9.00;99.90;;;;;;5083515;28;20067;-66
2023/12/28 01:22:24;;;;;;;13.85;3.13;;;9.20;99.90;;;;;;5098776;27;20135;-67
2023/12/28 01:24:54;;;;;;;12.82;2.60;;;9.20;99.90;;;;;;5119226;27;20035;-66
2023/12/28 01:27:23;;;;;;;18.35;3.78;;;9.20;99.90;;;;;;5074384;28;20093;-64
2023/12/28 01:29:50;;;;;;;15.65;3.10;;;9.50;99.90;;;;;;5120781;27;20040;-65
2023/12/28 01:32:16;;;;;;;17.38;3.38;;;9.10;99.90;;;;;;5103385;27;20043;-65
2023/12/28 01:34:42;;;;;;;17.33;3.40;;;9.10;99.90;;;;;;5080123;28;20054;-65
2023/12/28 01:37:08;;;;;;;9.98;2.47;;;9.10;99.90;;;;;;5100729;28;20035;-65
2023/12/28 01:39:34;;;;;;;11.07;2.40;;;9.10;99.90;;;;;;5098380;28;20036;-65
2023/12/28 01:41:59;;;;;;;13.20;3.00;;;9.10;99.90;;;;;;5078186;28;20039;-65
2023/12/28 01:44:25;;;;;;;11.25;2.60;;;9.10;99.90;;;;;;5093168;28;20047;-67
2023/12/28 01:46:52;;;;;;;14.48;2.70;;;9.10;99.90;;;;;;5090209;28;20820;-65
2023/12/28 01:49:18;;;;;;;11.25;3.03;;;9.10;99.90;;;;;;5118131;27;20148;-65
2023/12/28 01:51:45;;;;;;;16.70;4.20;;;9.10;99.90;;;;;;5097326;27;20120;-65
2023/12/28 01:54:11;;;;;;;15.10;3.30;;;9.10;99.90;;;;;;5112482;27;20460;-65
2023/12/28 01:56:37;;;;;;;16.85;2.75;;;9.10;99.90;;;;;;5078072;28;20213;-65
2023/12/28 01:59:03;;;;;;;11.38;2.72;;;9.10;99.90;;;;;;5098584;28;20043;-65
2023/12/28 02:01:29;;;;;;;13.55;2.88;;;9.10;99.90;;;;;;5080421;28;20043;-66
2023/12/28 02:03:55;;;;;;;12.50;2.40;;;9.10;99.90;;;;;;5097985;28;20109;-68
2023/12/28 02:06:24;;;;;;;13.77;2.95;;;9.00;99.90;;;;;;5082192;28;20641;-67
2023/12/28 02:08:50;;;;;;;17.55;3.10;;;9.00;99.90;;;;;;5084198;28;20056;-66
2023/12/28 02:11:16;;;;;;;11.02;3.45;;;9.00;99.90;;;;;;5089985;28;20058;-66
2023/12/28 02:13:43;;;;;;;18.40;3.20;;;9.10;99.90;;;;;;5105345;28;20040;-66
2023/12/28 02:16:32;;;;;;;11.77;3.28;;;9.00;99.90;;;;;;5099519;28;20039;-66
2023/12/28 02:19:08;;;;;;;12.27;2.38;;;9.00;99.90;;;;;;5133691;27;20063;-66
2023/12/28 02:21:34;;;;;;;11.73;2.60;;;9.00;99.90;;;;;;5093637;28;20127;-67
2023/12/28 02:24:00;;;;;;;11.60;2.70;;;9.00;99.90;;;;;;5090688;28;20140;-66
2023/12/28 02:26:25;;;;;;;11.30;2.55;;;9.00;99.90;;;;;;5117026;27;20514;-64
2023/12/28 02:28:51;;;;;;;9.95;2.33;;;9.00;99.90;;;;;;5125256;27;20036;-65
2023/12/28 02:31:32;;;;;;;14.13;2.83;;;8.90;99.90;;;;;;5101562;28;20442;-73
2023/12/28 02:34:06;;;;;;;16.30;3.20;;;9.00;99.90;;;;;;5099095;28;20048;-67
2023/12/28 02:36:36;;;;;;;15.98;3.05;;;9.00;99.90;;;;;;5088122;28;20058;-67
2023/12/28 02:39:03;;;;;;;16.15;2.70;;;8.90;99.90;;;;;;5123869;27;20590;-65
2023/12/28 02:41:30;;;;;;;13.18;2.55;;;8.90;99.90;;;;;;5100343;28;20035;-65
2023/12/28 02:43:56;;;;;;;9.35;3.03;;;8.90;99.90;;;;;;5101424;28;20082;-65
2023/12/28 02:46:22;;;;;;;14.60;3.03;;;9.00;99.90;;;;;;5101040;28;20090;-66
2023/12/28 02:48:49;;;;;;;8.40;2.72;;;9.10;99.90;;;;;;5084548;28;20067;-65
2023/12/28 02:51:16;;;;;;;13.88;2.42;;;9.00;99.90;;;;;;5130995;27;20426;-66
2023/12/28 02:53:42;;;;;;;15.65;3.33;;;9.00;99.90;;;;;;5109462;27;20206;-66
2023/12/28 02:56:07;;;;;;;10.98;2.45;;;9.00;99.90;;;;;;5097913;28;20179;-66
2023/12/28 02:58:33;;;;;;;16.17;3.47;;;9.00;99.90;;;;;;5129049;27;20085;-65
2023/12/28 03:00:59;;;;;;;17.67;2.78;;;9.10;99.90;;;;;;5103248;28;20565;-66
2023/12/28 03:03:25;;;;;;;12.82;2.80;;;9.10;99.90;;;;;;5102853;28;20061;-66
2023/12/28 03:05:51;;;;;;;14.80;3.35;;;9.10;99.90;;;;;;5105178;28;20043;-65
2023/12/28 03:08:16;;;;;;;12.95;2.58;;;9.10;99.90;;;;;;5106818;28;20119;-64
2023/12/28 03:10:42;;;;;;;16.00;2.90;;;9.10;99.90;;;;;;5105758;28;20050;-65
2023/12/28 03:13:08;;;;;;;14.77;3.05;;;9.10;99.90;;;;;;5087927;28;20151;-65
2023/12/28 03:15:34;;;;;;;17.48;2.90;;;9.20;99.90;;;;;;5104148;28;20138;-65
2023/12/28 03:17:59;;;;;;;18.42;2.88;;;9.20;99.90;;;;;;5104638;28;20032;-66
2023/12/28 03:20:25;;;;;;;12.73;2.60;;;9.20;99.90;;;;;;5104283;28;20039;-65
2023/12/28 03:22:51;;;;;;;13.15;2.70;;;9.20;99.90;;;;;;5104352;28;20031;-65
2023/12/28 03:25:17;;;;;;;12.25;2.47;;;9.20;99.90;;;;;;5104321;28;20059;-65
2023/12/28 03:27:42;;;;;;;13.43;2.50;;;9.30;99.90;;;;;;5125343;27;20040;-65
2023/12/28 03:30:08;;;;;;;7.75;2.63;;;9.30;99.90;;;;;;5100415;28;20092;-66
2023/12/28 03:32:34;;;;;;;12.18;2.42;;;9.30;99.90;;;;;;5136084;27;20374;-65
2023/12/28 03:35:00;;;;;;;10.00;2.30;;;9.30;99.90;;;;;;5104130;28;20044;-66
2023/12/28 03:37:26;;;;;;;13.10;2.67;;;9.40;99.90;;;;;;5100824;28;20583;-65
2023/12/28 03:39:51;;;;;;;14.88;2.75;;;9.80;99.90;;;;;;5103718;28;20035;-65
2023/12/28 03:42:17;;;;;;;12.35;2.67;;;9.40;99.90;;;;;;5105825;27;20142;-65
2023/12/28 03:44:43;;;;;;;24.13;4.28;;;9.90;99.90;;;;;;5083263;28;20172;-65
2023/12/28 03:47:08;;;;;;;15.90;2.50;;;9.40;99.90;;;;;;5104422;28;20035;-66
2023/12/28 03:49:34;;;;;;;13.95;2.28;;;9.40;99.90;;;;;;5104342;28;20043;-66
2023/12/28 03:52:00;;;;;;;9.75;2.40;;;9.40;99.90;;;;;;5104164;28;20043;-65
2023/12/28 03:54:25;;;;;;;14.10;2.50;;;9.40;99.90;;;;;;5102493;28;20399;-66
2023/12/28 03:56:51;;;;;;;17.80;3.05;;;9.40;99.90;;;;;;5100144;28;20039;-66
2023/12/28 03:59:17;;;;;;;14.20;2.35;;;9.50;99.90;;;;;;5104196;28;20040;-66
2023/12/28 04:01:43;;;;;;;12.85;2.72;;;9.50;99.90;;;;;;5087309;28;20043;-66
2023/12/28 04:04:10;;;;;;;11.82;2.47;;;9.50;99.90;;;;;;5103483;28;20051;-66
2023/12/28 04:06:36;;;;;;;12.73;2.33;;;9.50;99.90;;;;;;5098151;28;20412;-66
2023/12/28 04:09:02;;;;;;;14.40;3.63;;;9.50;99.90;;;;;;5127825;27;20797;-66
2023/12/28 04:11:28;;;;;;;11.88;2.50;;;9.50;99.90;;;;;;5134909;27;20046;-66
2023/12/28 04:13:54;;;;;;;12.52;2.22;;;9.60;99.90;;;;;;5104157;28;20070;-69
2023/12/28 04:16:20;;;;;;;11.48;2.28;;;9.60;99.90;;;;;;5103126;28;20053;-69
2023/12/28 04:18:46;;;;;;;11.07;2.70;;;9.50;99.90;;;;;;5105453;28;20047;-74
2023/12/28 04:21:13;;;;;;;20.10;3.17;;;9.60;99.90;;;;;;5104122;28;20044;-68
2023/12/28 04:23:40;;;;;;;13.93;2.40;;;9.60;99.90;;;;;;5132455;27;20107;-68
2023/12/28 04:26:06;;;;;;;14.77;3.22;;;9.60;99.90;;;;;;5103320;28;20043;-67
2023/12/28 04:28:34;;;;;;;16.10;2.83;;;9.60;99.90;;;;;;5133354;27;20052;-67
2023/12/28 04:31:03;;;;;;;11.95;2.42;;;9.70;99.90;;;;;;5103934;28;20055;-66
2023/12/28 04:33:29;;;;;;;19.15;3.03;;;9.60;99.90;;;;;;5103640;28;20102;-66
2023/12/28 04:35:54;;;;;;;12.15;3.10;;;9.70;99.90;;;;;;5081788;28;20075;-66
2023/12/28 04:38:23;;;;;;;14.88;3.25;;;10.10;99.90;;;;;;5103887;28;20058;-66
2023/12/28 04:40:49;;;;;;;15.98;3.63;;;9.70;99.90;;;;;;5104528;28;20523;-66
2023/12/28 04:43:15;;;;;;;16.02;3.28;;;9.70;99.90;;;;;;5103084;28;20074;-65
2023/12/28 04:45:40;;;;;;;12.32;2.67;;;9.70;99.90;;;;;;5086255;28;20043;-65
2023/12/28 04:48:06;;;;;;;15.82;2.55;;;9.70;99.90;;;;;;5105127;28;20488;-66
2023/12/28 04:50:32;;;;;;;16.17;2.50;;;9.70;99.90;;;;;;5103985;28;20059;-65
2023/12/28 04:52:57;;;;;;;15.68;2.40;;;9.70;99.90;;;;;;5101240;28;20131;-65
2023/12/28 04:55:24;;;;;;;18.70;2.50;;;9.80;99.90;;;;;;5134998;27;20066;-65
2023/12/28 04:57:50;;;;;;;21.63;2.67;;;9.70;99.90;;;;;;5094805;28;20124;-66
2023/12/28 05:00:16;;;;;;;14.65;2.33;;;9.70;99.90;;;;;;5124513;27;20089;-65
2023/12/28 05:02:42;;;;;;;13.32;2.60;;;9.70;99.90;;;;;;5095805;28;20586;-66
2023/12/28 05:05:10;;;;;;;14.30;2.33;;;9.80;99.90;;;;;;5132108;27;20066;-67
2023/12/28 05:07:35;;;;;;;18.42;3.10;;;9.70;99.90;;;;;;5104925;28;20046;-66
2023/12/28 05:10:01;;;;;;;13.57;2.83;;;10.10;99.90;;;;;;5103067;28;20423;-66
2023/12/28 05:12:27;;;;;;;22.75;3.38;;;9.80;99.90;;;;;;5100924;28;20729;-65
2023/12/28 05:14:52;;;;;;;20.35;3.38;;;9.80;99.90;;;;;;5085584;28;20039;-65
2023/12/28 05:17:18;;;;;;;19.75;3.47;;;9.90;99.90;;;;;;5098649;28;20485;-65
2023/12/28 05:19:44;;;;;;;14.85;2.40;;;9.90;99.90;;;;;;5129540;27;20417;-66
2023/12/28 05:22:11;;;;;;;17.30;2.97;;;9.90;99.90;;;;;;5101674;28;20039;-66
2023/12/28 05:24:36;;;;;;;12.52;2.50;;;9.90;99.90;;;;;;5133470;27;20055;-65
2023/12/28 05:27:02;;;;;;;14.00;2.80;;;9.90;99.90;;;;;;5097846;28;20079;-65
2023/12/28 05:29:28;;;;;;;18.98;3.42;;;9.90;99.90;;;;;;5084525;28;20071;-65
2023/12/28 05:31:54;;;;;;;13.60;2.83;;;9.90;99.90;;;;;;5102822;28;20052;-67
2023/12/28 05:34:19;;;;;;;19.77;3.30;;;9.90;99.90;;;;;;5102062;28;20776;-65
2023/12/28 05:36:48;;;;;;;22.58;2.95;;;9.90;99.90;;;;;;5131146;27;20495;-65
2023/12/28 05:39:14;;;;;;;14.32;2.28;;;10.00;99.90;;;;;;5078361;28;20122;-65
2023/12/28 05:41:43;;;;;;;19.85;3.50;;;10.20;99.90;;;;;;5093647;28;20170;-65
2023/12/28 05:44:09;;;;;;;25.45;3.38;;;10.00;99.90;;;;;;5088867;28;20047;-66
2023/12/28 05:46:34;;;;;;;23.25;2.88;;;10.00;99.90;;;;;;5088924;28;20040;-66
2023/12/28 05:49:00;;;;;;;19.23;2.60;;;10.00;99.90;;;;;;5119033;27;20050;-66
2023/12/28 05:51:26;;;;;;;17.55;2.53;;;10.00;99.90;;;;;;5084641;28;20165;-66
2023/12/28 05:53:52;;;;;;;23.10;2.95;;;10.00;99.90;;;;;;5101432;28;20058;-65
2023/12/28 05:56:17;;;;;;;18.08;2.45;;;10.10;99.90;;;;;;5101254;28;20046;-66
2023/12/28 05:58:43;;;;;;;19.65;3.33;;;10.00;99.90;;;;;;5102943;28;20048;-66
2023/12/28 06:01:09;;;;;;;17.75;3.15;;;10.00;99.90;;;;;;5084625;28;21036;-66
2023/12/28 06:03:34;;;;;;;19.33;2.85;;;10.00;99.90;;;;;;5085059;28;20059;-65
2023/12/28 06:06:00;;;;;;;13.98;2.40;;;10.00;99.90;;;;;;5101820;28;20039;-65
2023/12/28 06:08:26;;;;;;;16.95;3.20;;;10.00;99.90;;;;;;5100193;28;20650;-65
2023/12/28 06:10:52;;;;;;;17.67;3.80;;;10.10;99.90;;;;;;5102102;28;20051;-66
2023/12/28 06:13:17;;;;;;;12.70;2.20;;;10.00;99.90;;;;;;5100583;28;20039;-65
2023/12/28 06:15:43;;;;;;;18.88;3.15;;;10.00;99.90;;;;;;5102717;28;20139;-66
2023/12/28 06:18:09;;;;;;;23.30;3.35;;;10.00;99.90;;;;;;5103089;28;20412;-66
2023/12/28 06:20:36;;;;;;;20.27;2.20;;;10.00;99.90;;;;;;5101974;28;20105;-67
2023/12/28 06:23:02;;;;;;;17.13;2.60;;;10.00;99.90;;;;;;5082914;28;20111;-66
2023/12/28 06:25:28;;;;;;;18.92;3.53;;;10.00;99.90;;;;;;5131035;27;20047;-65
2023/12/28 06:27:54;;;;;;;17.55;2.75;;;10.10;99.90;;;;;;5131320;27;20066;-66
2023/12/28 06:30:19;;;;;;;15.77;2.60;;;10.10;99.90;;;;;;5106451;28;20047;-66
2023/12/28 06:32:45;;;;;;;19.23;2.53;;;10.10;99.90;;;;;;5088482;28;20042;-65
2023/12/28 06:35:10;;;;;;;18.02;2.75;;;10.10;99.90;;;;;;5104397;28;20498;-65
2023/12/28 06:37:36;;;;;;;20.88;2.85;;;10.00;99.90;;;;;;5104868;28;20040;-65
2023/12/28 06:40:02;;;;;;;23.15;3.25;;;10.10;99.90;;;;;;5138387;27;20043;-65
2023/12/28 06:42:28;;;;;;;23.92;3.05;;;10.10;99.90;;;;;;5088522;28;20043;-68
2023/12/28 06:44:54;;;;;;;24.42;3.03;;;10.20;99.90;;;;;;5104053;28;20036;-69
2023/12/28 06:47:20;;;;;;;22.77;3.53;;;10.10;99.90;;;;;;5105234;28;20048;-67
2023/12/28 06:49:46;;;;;;;26.30;4.43;;;10.10;99.90;;;;;;5105819;28;20051;-68
2023/12/28 06:52:12;;;;;;;15.88;3.30;;;10.10;99.90;;;;;;5088459;28;20385;-68
2023/12/28 06:54:37;;;;;;;23.77;3.42;;;10.10;99.90;;;;;;5105665;28;20040;-68
2023/12/28 06:57:03;;;;;;;19.95;2.63;;;10.10;99.90;;;;;;5105012;28;20075;-67
2023/12/28 06:59:29;;;;;;;18.45;3.25;;;10.20;99.90;;;;;;5105582;28;20051;-68
2023/12/28 07:01:55;;;;;;;14.32;2.83;;;10.20;99.90;;;;;;5106259;28;20183;-68
2023/12/28 07:04:21;;;;;;;28.02;3.55;;;10.10;99.90;;;;;;5104108;28;20090;-68
2023/12/28 07:06:47;;;;;;;20.63;2.85;;;10.20;99.90;;;;;;5105781;28;20047;-68
2023/12/28 07:09:12;;;;;;;18.90;4.15;;;10.20;99.90;;;;;;5105050;28;20055;-67
2023/12/28 07:11:38;;;;;;;21.75;3.58;;;10.20;99.90;;;;;;5105113;28;20050;-67
2023/12/28 07:14:04;;;;;;;27.48;4.25;;;10.20;99.90;;;;;;5106304;27;20411;-68
2023/12/28 07:16:29;;;;;;;22.48;4.22;;;10.20;99.90;;;;;;5136533;27;20047;-69
2023/12/28 07:18:55;;;;;;;21.42;3.33;;;10.30;99.90;;;;;;5105276;28;20035;-68
2023/12/28 07:21:21;;;;;;;20.90;3.08;;;10.30;99.90;;;;;;5104769;28;20040;-67
2023/12/28 07:23:49;;;;;;;20.08;4.05;;;10.40;99.90;;;;;;5104942;28;20419;-68
2023/12/28 07:26:15;;;;;;;21.20;3.17;;;10.20;99.90;;;;;;5138531;27;20528;-69
2023/12/28 07:28:43;;;;;;;22.40;3.28;;;10.20;99.90;;;;;;5104523;28;20859;-68
2023/12/28 07:31:09;;;;;;;25.77;3.05;;;10.20;99.90;;;;;;5106675;28;20047;-67
2023/12/28 07:33:35;;;;;;;24.17;3.45;;;10.20;99.90;;;;;;5105543;28;20043;-68
2023/12/28 07:36:02;;;;;;;28.15;4.32;;;10.20;99.90;;;;;;5087826;28;20048;-68
2023/12/28 07:38:28;;;;;;;30.55;3.67;;;10.30;99.90;;;;;;5097537;27;20603;-68
2023/12/28 07:40:54;;;;;;;33.67;3.60;;;10.20;99.90;;;;;;5084364;28;20043;-68
2023/12/28 07:43:21;;;;;;;21.45;3.72;;;10.20;99.90;;;;;;5134377;27;20043;-68
2023/12/28 07:45:47;;;;;;;22.13;3.45;;;10.20;99.90;;;;;;5102883;28;20059;-68
2023/12/28 07:48:12;;;;;;;26.17;3.78;;;10.20;99.90;;;;;;5087432;28;20060;-69
2023/12/28 07:50:38;;;;;;;29.30;4.57;;;10.20;99.90;;;;;;5101710;28;20464;-68
2023/12/28 07:53:04;;;;;;;34.13;4.15;;;10.50;99.90;;;;;;5102108;27;20071;-68
2023/12/28 07:55:30;;;;;;;33.03;4.72;;;10.30;99.90;;;;;;5099587;28;20144;-65
2023/12/28 07:57:55;;;;;;;29.92;3.47;;;10.30;99.90;;;;;;5102042;28;20039;-65
2023/12/28 08:00:21;;;;;;;27.85;4.53;;;10.30;99.90;;;;;;5134588;27;20729;-65
2023/12/28 08:02:47;;;;;;;33.33;4.22;;;10.30;99.90;;;;;;5104453;28;20626;-66
2023/12/28 08:05:13;;;;;;;29.85;5.00;;;10.30;99.90;;;;;;5098367;28;20209;-66
2023/12/28 08:07:38;;;;;;;24.48;3.45;;;10.30;99.90;;;;;;5104116;28;20047;-66
2023/12/28 08:10:05;;;;;;;28.00;4.53;;;10.60;99.90;;;;;;5100539;28;20100;-66
2023/12/28 08:12:31;;;;;;;25.23;3.90;;;10.30;99.90;;;;;;5100825;28;20577;-66
2023/12/28 08:14:57;;;;;;;29.88;5.28;;;10.30;99.90;;;;;;5099827;28;20039;-66
2023/12/28 08:17:22;;;;;;;26.27;4.10;;;10.40;99.90;;;;;;5104429;28;20050;-66
2023/12/28 08:19:48;;;;;;;25.05;3.30;;;10.40;99.90;;;;;;5103315;28;20422;-66
2023/12/28 08:22:14;;;;;;;29.88;5.35;;;10.40;99.90;;;;;;5105090;28;20067;-65
2023/12/28 08:24:39;;;;;;;28.77;4.40;;;10.40;99.90;;;;;;5104294;27;20113;-66
2023/12/28 08:27:05;;;;;;;34.72;4.75;;;10.40;99.90;;;;;;5104818;28;20054;-65
2023/12/28 08:29:31;;;;;;;29.95;4.18;;;10.40;99.90;;;;;;5103508;28;20051;-67
2023/12/28 08:31:57;;;;;;;30.83;5.38;;;10.40;99.90;;;;;;5100699;28;20676;-66
2023/12/28 08:34:22;;;;;;;33.13;5.22;;;10.50;99.90;;;;;;5127113;27;20055;-66
2023/12/28 08:36:48;;;;;;;32.58;4.53;;;10.50;99.90;;;;;;5097981;28;20700;-66
2023/12/28 08:39:13;;;;;;;29.52;4.93;;;10.50;99.90;;;;;;5099189;28;20065;-66
2023/12/28 08:41:39;;;;;;;35.30;5.25;;;10.50;99.90;;;;;;5099723;28;20040;-65
2023/12/28 08:44:05;;;;;;;27.92;6.03;;;10.40;99.90;;;;;;5083422;28;20526;-66
2023/12/28 08:46:31;;;;;;;32.97;5.10;;;10.50;99.90;;;;;;5114619;27;20073;-66
2023/12/28 08:48:56;;;;;;;35.15;4.93;;;10.50;99.90;;;;;;5095565;28;20035;-66
2023/12/28 08:51:22;;;;;;;22.95;4.25;;;10.50;99.90;;;;;;5096192;28;20524;-68
2023/12/28 08:53:48;;;;;;;30.95;5.03;;;10.50;99.90;;;;;;5084115;28;20040;-67
2023/12/28 08:56:17;;;;;;;33.05;5.28;;;10.50;99.90;;;;;;5112851;27;20561;-68
2023/12/28 08:58:43;;;;;;;34.28;5.00;;;10.50;99.90;;;;;;5121817;27;20060;-68
2023/12/28 09:01:08;;;;;;;40.28;5.25;;;10.50;99.90;;;;;;5120245;27;20035;-67
2023/12/28 09:03:34;;;;;;;34.10;5.13;;;10.50;99.90;;;;;;5090348;27;20044;-68
2023/12/28 09:06:00;;;;;;;30.90;4.93;;;10.50;99.90;;;;;;5089364;28;20055;-66
2023/12/28 09:08:26;;;;;;;27.92;4.22;;;10.60;99.90;;;;;;5098467;28;20520;-66
2023/12/28 09:10:51;;;;;;;26.98;4.65;;;10.50;99.90;;;;;;5094721;28;20059;-68
2023/12/28 09:13:18;;;;;;;37.17;5.13;;;10.60;99.90;;;;;;5097070;28;20109;-67
2023/12/28 09:15:44;;;;;;;36.42;5.70;;;10.60;99.90;;;;;;5091657;27;20048;-66
2023/12/28 09:18:09;;;;;;;28.02;4.20;;;10.60;99.90;;;;;;5084957;28;20032;-67
2023/12/28 09:20:35;;;;;;;32.05;4.82;;;10.60;99.90;;;;;;5071866;28;20146;-67
2023/12/28 09:23:01;;;;;;;30.48;4.88;;;10.60;99.90;;;;;;5116376;27;20044;-66
2023/12/28 09:25:27;;;;;;;30.83;5.35;;;10.60;99.90;;;;;;5098477;27;20071;-67
2023/12/28 09:27:53;;;;;;;25.27;4.63;;;10.60;99.90;;;;;;5089990;28;20552;-67
2023/12/28 09:30:19;;;;;;;22.83;3.65;;;10.60;99.90;;;;;;5081747;28;20047;-67
2023/12/28 09:32:45;;;;;;;34.70;4.88;;;10.60;99.90;;;;;;5098852;27;20055;-66
2023/12/28 09:35:11;;;;;;;34.00;5.47;;;10.60;99.90;;;;;;5093527;28;20216;-64
2023/12/28 09:37:36;;;;;;;33.15;4.97;;;10.60;99.90;;;;;;5084424;28;20048;-66
2023/12/28 09:40:03;;;;;;;35.85;4.05;;;10.60;99.90;;;;;;5117749;27;20100;-66
2023/12/28 09:42:38;;;;;;;29.65;4.57;;;10.60;99.90;;;;;;5119185;27;20055;-67
2023/12/28 09:45:04;;;;;;;41.03;6.20;;;11.00;99.90;;;;;;5115177;27;20046;-66
2023/12/28 09:47:33;;;;;;;26.05;4.75;;;10.70;99.90;;;;;;5091866;28;20063;-68
2023/12/28 09:49:59;;;;;;;28.55;4.65;;;10.60;99.90;;;;;;5095653;28;20046;-66
2023/12/28 09:52:24;;;;;;;24.58;3.67;;;10.60;99.90;;;;;;5122125;27;20036;-66
2023/12/28 09:54:53;;;;;;;36.20;5.82;;;10.60;99.90;;;;;;5096477;28;20059;-66
2023/12/28 09:57:23;;;;;;;20.13;4.20;;;10.60;99.90;;;;;;5127671;27;20086;-66
2023/12/28 09:59:49;;;;;;;24.95;4.38;;;10.60;99.90;;;;;;5096449;28;20101;-65
2023/12/28 10:02:16;;;;;;;25.75;4.65;;;10.60;99.90;;;;;;5110215;27;20559;-66
2023/12/28 10:04:42;;;;;;;22.70;3.97;;;10.60;99.90;;;;;;5093720;28;20051;-65
2023/12/28 10:07:08;;;;;;;20.23;4.32;;;10.90;99.90;;;;;;5094937;28;20046;-66
2023/12/28 10:09:34;;;;;;;28.73;4.53;;;10.60;99.90;;;;;;5096353;28;20055;-67
2023/12/28 10:12:00;;;;;;;28.42;4.25;;;10.60;99.90;;;;;;5097369;28;20036;-66
2023/12/28 10:14:26;;;;;;;22.73;3.75;;;10.60;99.90;;;;;;5073251;28;20433;-67
2023/12/28 10:16:52;;;;;;;25.17;3.92;;;10.70;99.90;;;;;;5094072;28;20039;-66
2023/12/28 10:19:22;;;;;;;38.75;4.95;;;10.70;99.90;;;;;;5091752;28;20044;-65
2023/12/28 10:21:48;;;;;;;30.70;4.43;;;10.70;99.90;;;;;;5090775;28;20055;-66
2023/12/28 10:24:14;;;;;;;27.25;4.15;;;10.70;99.90;;;;;;5092881;28;20044;-68
2023/12/28 10:26:40;;;;;;;24.52;3.70;;;10.70;99.90;;;;;;5118671;27;20121;-66
2023/12/28 10:29:06;;;;;;;21.65;4.20;;;10.70;99.90;;;;;;5061995;28;20036;-66
2023/12/28 10:31:31;;;;;;;31.73;4.25;;;10.60;99.90;;;;;;5088822;28;20089;-65
2023/12/28 10:34:02;;;;;;;25.92;3.90;;;10.70;99.90;;;;;;5097970;28;20048;-66
2023/12/28 10:36:28;;;;;;;28.83;3.92;;;10.70;99.90;;;;;;5094316;28;20182;-65
2023/12/28 10:38:54;;;;;;;27.83;4.20;;;10.70;99.90;;;;;;5088446;28;20039;-67
2023/12/28 10:41:21;;;;;;;23.00;4.00;;;10.70;99.90;;;;;;5087600;28;20126;-66
2023/12/28 10:44:03;;;;;;;22.67;3.80;;;10.70;99.90;;;;;;5091366;28;20656;-64
2023/12/28 10:46:31;;;;;;;27.15;4.20;;;10.70;99.90;;;;;;5096210;28;20048;-66
2023/12/28 10:49:14;;;;;;;26.42;3.88;;;10.70;99.90;;;;;;5091188;28;20048;-66
2023/12/28 10:51:45;;;;;;;28.92;4.70;;;10.70;99.90;;;;;;5128262;27;20971;-65
2023/12/28 10:54:40;;;;;;;23.50;3.70;;;10.70;99.90;;;;;;5098121;28;20431;-66
2023/12/28 10:57:11;;;;;;;21.90;3.80;;;10.70;99.90;;;;;;5095848;28;20463;-64
2023/12/28 10:59:46;;;;;;;28.27;4.22;;;10.70;99.90;;;;;;5089941;28;20499;-65
2023/12/28 11:02:17;;;;;;;27.92;3.17;;;10.70;99.90;;;;;;5090590;28;20089;-65
2023/12/28 11:04:49;;;;;;;29.38;4.75;;;10.70;99.90;;;;;;5094438;28;20044;-66
2023/12/28 11:07:17;;;;;;;27.02;3.65;;;10.70;99.90;;;;;;5094783;28;20064;-65
2023/12/28 11:09:44;;;;;;;24.65;3.92;;;10.70;99.90;;;;;;5094397;28;20059;-65
2023/12/28 11:12:10;;;;;;;29.00;4.95;;;10.70;99.90;;;;;;5078479;28;20062;-66
2023/12/28 11:14:39;;;;;;;24.33;4.35;;;10.70;99.90;;;;;;5097035;28;20043;-66
2023/12/28 11:17:05;;;;;;;23.95;3.85;;;10.70;99.90;;;;;;5097849;28;20526;-66
2023/12/28 11:19:31;;;;;;;29.90;4.35;;;10.70;99.90;;;;;;5098980;27;20075;-65
2023/12/28 11:21:59;;;;;;;26.58;4.03;;;10.70;99.90;;;;;;5097965;28;20481;-66
2023/12/28 11:24:28;;;;;;;24.95;3.60;;;10.70;99.90;;;;;;5101402;28;20051;-67
2023/12/28 11:26:56;;;;;;;26.45;4.10;;;10.70;99.90;;;;;;5081589;28;20039;-66
2023/12/28 11:29:26;;;;;;;24.42;4.07;;;10.70;99.90;;;;;;5131515;27;20027;-66
2023/12/28 11:31:52;;;;;;;24.85;4.07;;;10.70;99.90;;;;;;5084029;28;20453;-67
2023/12/28 11:34:18;;;;;;;23.85;4.03;;;10.70;99.90;;;;;;5101018;28;20843;-65
2023/12/28 11:36:50;;;;;;;32.25;4.80;;;10.70;99.90;;;;;;5072875;28;20059;-65
2023/12/28 11:39:40;;;;;;;30.23;4.35;;;10.70;99.90;;;;;;5079584;28;20081;-65
2023/12/28 11:42:08;;;;;;;24.60;3.35;;;10.70;99.90;;;;;;5130556;27;20082;-67
2023/12/28 11:44:41;;;;;;;27.98;4.35;;;10.70;99.90;;;;;;5130014;27;20079;-67
2023/12/28 11:47:14;;;;;;;24.02;4.07;;;10.70;99.90;;;;;;5098264;28;20404;-67
2023/12/28 11:49:40;;;;;;;23.92;3.47;;;10.70;99.90;;;;;;5098273;28;20590;-67
2023/12/28 11:52:07;;;;;;;26.15;4.18;;;10.70;99.90;;;;;;5098102;28;20047;-65
2023/12/28 11:54:33;;;;;;;25.67;4.05;;;10.70;99.90;;;;;;5099512;28;20097;-67
2023/12/28 11:56:59;;;;;;;33.08;4.20;;;10.60;99.90;;;;;;5082968;28;20491;-66
2023/12/28 11:59:24;;;;;;;23.67;4.00;;;10.90;99.90;;;;;;5090365;28;20055;-65
2023/12/28 12:01:54;;;;;;;29.63;4.15;;;10.70;99.90;;;;;;5133376;27;20086;-66
2023/12/28 12:04:21;;;;;;;30.77;4.22;;;10.70;99.90;;;;;;5099678;28;20035;-66
2023/12/28 12:06:47;;;;;;;25.17;3.63;;;10.60;99.90;;;;;;5101306;28;20047;-65
2023/12/28 12:09:18;;;;;;;23.75;3.38;;;10.60;99.90;;;;;;5100018;28;20031;-67
2023/12/28 12:11:43;;;;;;;30.35;5.05;;;10.60;99.90;;;;;;5101122;28;20118;-67
2023/12/28 12:14:10;;;;;;;23.35;4.32;;;10.60;99.90;;;;;;5097671;28;20398;-67
2023/12/28 12:16:37;;;;;;;16.33;3.72;;;10.60;99.90;;;;;;5098949;28;20123;-67
2023/12/28 12:19:06;;;;;;;24.02;4.38;;;10.60;99.90;;;;;;5082423;28;20131;-71
2023/12/28 12:21:34;;;;;;;26.92;4.50;;;10.60;99.90;;;;;;5098714;28;20044;-67
2023/12/28 12:24:00;;;;;;;28.48;3.88;;;10.60;99.90;;;;;;5103264;28;20094;-65
2023/12/28 12:26:27;;;;;;;29.27;4.40;;;10.60;99.90;;;;;;5101914;27;20146;-65
2023/12/28 12:28:52;;;;;;;27.30;4.75;;;10.60;99.90;;;;;;5099538;28;20051;-66
2023/12/28 12:31:19;;;;;;;31.92;5.20;;;10.60;99.90;;;;;;5133001;27;20043;-66
2023/12/28 12:33:45;;;;;;;32.33;4.95;;;10.60;99.90;;;;;;5134256;27;20074;-66
2023/12/28 12:36:11;;;;;;;29.73;4.35;;;10.60;99.90;;;;;;5099776;28;20308;-67
2023/12/28 12:38:36;;;;;;;27.25;4.20;;;10.60;99.90;;;;;;5096423;28;20059;-66
2023/12/28 12:41:03;;;;;;;27.77;4.85;;;10.60;99.90;;;;;;5099115;27;20346;-66